createdAt,value
2023-05-12T00:00:02.553Z,11.60
2023-05-12T00:02:38.302Z,11.61
2023-05-12T00:05:05.591Z,11.57
2023-05-12T00:07:32.012Z,11.56
2023-05-12T00:09:58.432Z,11.51
2023-05-12T00:12:24.883Z,11.47
2023-05-12T00:14:51.277Z,11.43
2023-05-12T00:17:17.759Z,11.44
2023-05-12T00:19:44.229Z,11.41
2023-05-12T00:22:11.594Z,11.38
2023-05-12T00:24:39.720Z,11.36
2023-05-12T00:27:07.301Z,11.39
2023-05-12T00:29:34.443Z,11.37
2023-05-12T00:32:01.155Z,11.33
2023-05-12T00:34:28.266Z,11.28
2023-05-12T00:36:54.795Z,11.27
2023-05-12T00:39:21.469Z,11.23
2023-05-12T00:41:50.098Z,11.24
2023-05-12T00:44:18.426Z,11.22
2023-05-12T00:46:45.102Z,11.25
2023-05-12T00:49:12.855Z,11.25
2023-05-12T00:51:40.118Z,11.26
2023-05-12T00:54:06.678Z,11.26
2023-05-12T00:56:39.179Z,11.23
2023-05-12T00:59:08.140Z,11.26
2023-05-12T01:01:37.815Z,11.23
2023-05-12T01:04:04.630Z,11.25
2023-05-12T01:06:55.432Z,11.20
2023-05-12T01:09:22.115Z,11.19
2023-05-12T01:11:48.694Z,11.16
2023-05-12T01:14:15.753Z,11.15
2023-05-12T01:16:52.675Z,11.14
2023-05-12T01:19:49.599Z,11.10
2023-05-12T01:22:17.544Z,11.09
2023-05-12T01:25:02.568Z,11.07
2023-05-12T01:27:31.405Z,11.07
2023-05-12T01:30:00.377Z,11.06
2023-05-12T01:32:27.634Z,11.07
2023-05-12T01:34:54.154Z,11.06
2023-05-12T01:37:21.381Z,11.07
2023-05-12T01:39:48.194Z,11.09
2023-05-12T01:42:18.675Z,11.11
2023-05-12T01:44:45.387Z,11.08
2023-05-12T01:47:15.359Z,11.08
2023-05-12T01:49:45.838Z,11.13
2023-05-12T01:52:14.712Z,11.12
2023-05-12T01:54:41.325Z,11.14
2023-05-12T01:57:08.085Z,11.14
2023-05-12T01:59:36.914Z,11.13
2023-05-12T02:02:05.177Z,11.11
2023-05-12T02:04:31.673Z,11.11
2023-05-12T02:06:59.815Z,11.13
2023-05-12T02:09:26.672Z,11.11
2023-05-12T02:11:57.233Z,11.10
2023-05-12T02:14:23.699Z,11.09
2023-05-12T02:16:52.708Z,11.10
2023-05-12T02:19:21.017Z,11.09
2023-05-12T02:21:48.630Z,11.08
2023-05-12T02:24:16.528Z,11.08
2023-05-12T02:26:43.719Z,11.07
2023-05-12T02:29:11.861Z,11.06
2023-05-12T02:31:38.967Z,11.04
2023-05-12T02:34:14.889Z,11.04
2023-05-12T02:36:41.595Z,11.04
2023-05-12T02:39:08.161Z,11.01
2023-05-12T02:41:35.353Z,11.02
2023-05-12T02:44:01.987Z,11.01
2023-05-12T02:46:28.455Z,11.01
2023-05-12T02:48:55.379Z,11.00
2023-05-12T02:51:21.875Z,10.98
2023-05-12T02:53:48.370Z,10.98
2023-05-12T02:56:15.172Z,10.96
2023-05-12T02:58:41.922Z,10.96
2023-05-12T03:01:11.244Z,10.97
2023-05-12T03:03:39.314Z,10.96
2023-05-12T03:06:06.609Z,10.95
2023-05-12T03:08:33.290Z,10.95
2023-05-12T03:10:59.984Z,10.94
2023-05-12T03:13:26.493Z,10.95
2023-05-12T03:15:52.977Z,10.95
2023-05-12T03:18:19.705Z,10.94
2023-05-12T03:20:46.950Z,10.93
2023-05-12T03:23:15.037Z,10.93
2023-05-12T03:25:41.486Z,10.91
2023-05-12T03:28:07.941Z,10.92
2023-05-12T03:30:34.495Z,10.93
2023-05-12T03:33:01.041Z,10.96
2023-05-12T03:35:27.776Z,10.95
2023-05-12T03:37:54.368Z,10.94
2023-05-12T03:40:21.154Z,10.96
2023-05-12T03:42:48.002Z,10.96
2023-05-12T03:45:14.468Z,10.95
2023-05-12T03:47:41.191Z,10.94
2023-05-12T03:50:08.555Z,10.95
2023-05-12T03:52:38.182Z,10.98
2023-05-12T03:55:06.783Z,10.95
2023-05-12T03:57:34.481Z,10.95
2023-05-12T04:00:01.032Z,10.98
2023-05-12T04:02:28.022Z,10.98
2023-05-12T04:04:54.620Z,10.98
2023-05-12T04:07:21.554Z,10.98
2023-05-12T04:09:47.998Z,11.01
2023-05-12T04:12:14.585Z,11.01
2023-05-12T04:14:43.109Z,11.03
2023-05-12T04:17:10.872Z,11.03
2023-05-12T04:19:37.342Z,11.05
2023-05-12T04:22:05.008Z,11.03
2023-05-12T04:24:31.474Z,11.06
2023-05-12T04:26:58.306Z,11.07
2023-05-12T04:29:25.229Z,11.08
2023-05-12T04:31:51.754Z,11.10
2023-05-12T04:34:18.245Z,11.12
2023-05-12T04:36:44.695Z,11.15
2023-05-12T04:39:11.415Z,11.18
2023-05-12T04:41:37.908Z,11.15
2023-05-12T04:44:05.078Z,11.18
2023-05-12T04:46:32.695Z,11.20
2023-05-12T04:49:00.142Z,11.21
2023-05-12T04:51:26.700Z,11.22
2023-05-12T04:53:53.197Z,11.22
2023-05-12T04:56:22.069Z,11.23
2023-05-12T04:58:48.565Z,11.24
2023-05-12T05:01:15.134Z,11.27
2023-05-12T05:03:41.780Z,11.28
2023-05-12T05:06:08.453Z,11.28
2023-05-12T05:08:34.982Z,11.30
2023-05-12T05:11:02.964Z,11.31
2023-05-12T05:13:31.226Z,11.33
2023-05-12T05:15:57.798Z,11.36
2023-05-12T05:18:25.406Z,11.37
2023-05-12T05:20:58.436Z,11.38
2023-05-12T05:23:26.316Z,11.42
2023-05-12T05:25:53.322Z,11.44
2023-05-12T05:28:19.793Z,11.48
2023-05-12T05:30:46.415Z,11.52
2023-05-12T05:33:14.026Z,11.55
2023-05-12T05:35:41.914Z,11.56
2023-05-12T05:38:09.676Z,11.57
2023-05-12T05:40:49.298Z,11.60
2023-05-12T05:43:19.136Z,11.62
2023-05-12T05:45:45.856Z,11.64
2023-05-12T05:48:13.641Z,11.67
2023-05-12T05:50:40.172Z,11.69
2023-05-12T05:53:06.865Z,11.73
2023-05-12T05:55:33.491Z,11.76
2023-05-12T05:58:00.739Z,11.78
2023-05-12T06:00:27.315Z,11.81
2023-05-12T06:02:55.827Z,11.80
2023-05-12T06:05:22.762Z,11.82
2023-05-12T06:07:49.546Z,11.87
2023-05-12T06:10:15.994Z,11.94
2023-05-12T06:12:43.217Z,11.96
2023-05-12T06:15:10.219Z,12.00
2023-05-12T06:17:36.768Z,12.05
2023-05-12T06:20:05.181Z,12.07
2023-05-12T06:22:31.685Z,12.08
2023-05-12T06:25:00.321Z,12.11
2023-05-12T06:27:26.746Z,12.17
2023-05-12T06:29:53.414Z,12.23
2023-05-12T06:32:19.894Z,12.31
2023-05-12T06:34:46.430Z,12.39
2023-05-12T06:37:12.894Z,12.41
2023-05-12T06:39:39.384Z,12.42
2023-05-12T06:42:06.141Z,12.42
2023-05-12T06:44:42.011Z,12.42
2023-05-12T06:47:09.320Z,12.46
2023-05-12T06:49:37.052Z,12.48
2023-05-12T06:52:04.809Z,12.51
2023-05-12T06:54:32.996Z,12.56
2023-05-12T06:57:00.025Z,12.56
2023-05-12T06:59:27.583Z,12.60
2023-05-12T07:01:55.594Z,12.61
2023-05-12T07:04:25.092Z,12.68
2023-05-12T07:06:53.395Z,12.75
2023-05-12T07:09:20.137Z,12.88
2023-05-12T07:11:47.004Z,12.98
2023-05-12T07:14:13.572Z,13.13
2023-05-12T07:16:39.983Z,13.25
2023-05-12T07:19:08.981Z,13.36
2023-05-12T07:21:37.117Z,13.42
2023-05-12T07:24:03.901Z,13.61
2023-05-12T07:26:30.707Z,13.81
2023-05-12T07:28:57.377Z,13.98
2023-05-12T07:31:23.982Z,14.09
2023-05-12T07:33:50.679Z,14.27
2023-05-12T07:36:20.683Z,14.36
2023-05-12T07:38:48.868Z,14.49
2023-05-12T07:41:17.389Z,14.68
2023-05-12T07:43:43.834Z,15.11
2023-05-12T07:46:10.375Z,15.33
2023-05-12T07:48:39.856Z,15.64
2023-05-12T07:51:07.863Z,16.02
2023-05-12T07:53:34.774Z,16.19
2023-05-12T07:56:01.775Z,16.18
2023-05-12T07:58:28.528Z,16.07
2023-05-12T08:01:00.480Z,16.05
2023-05-12T08:03:27.060Z,16.10
2023-05-12T08:05:53.696Z,16.25
2023-05-12T08:08:21.142Z,16.38
2023-05-12T08:10:47.634Z,16.54
2023-05-12T08:13:14.222Z,16.75
2023-05-12T08:15:40.896Z,16.92
2023-05-12T08:18:10.464Z,17.22
2023-05-12T08:20:39.741Z,17.31
2023-05-12T08:23:06.152Z,17.52
2023-05-12T08:25:34.851Z,17.70
2023-05-12T08:28:01.417Z,17.74
2023-05-12T08:30:28.053Z,17.99
2023-05-12T08:32:56.187Z,17.96
2023-05-12T08:35:24.903Z,17.95
2023-05-12T08:37:51.408Z,18.01
2023-05-12T08:40:22.341Z,17.94
2023-05-12T08:43:23.862Z,18.06
2023-05-12T08:45:50.935Z,18.22
2023-05-12T08:48:19.814Z,18.32
2023-05-12T08:50:49.709Z,18.62
2023-05-12T08:53:18.800Z,18.85
2023-05-12T08:56:01.162Z,18.97
2023-05-12T08:58:41.760Z,19.00
2023-05-12T09:01:12.061Z,19.09
2023-05-12T09:03:38.915Z,19.12
2023-05-12T09:06:06.602Z,19.16
2023-05-12T09:08:34.814Z,19.70
2023-05-12T09:11:02.020Z,20.23
2023-05-12T09:13:35.375Z,20.41
2023-05-12T09:16:04.376Z,20.32
2023-05-12T09:18:52.587Z,20.23
2023-05-12T09:21:20.602Z,20.13
2023-05-12T09:23:54.230Z,20.13
2023-05-12T09:26:22.558Z,19.93
2023-05-12T09:28:53.819Z,19.80
2023-05-12T09:31:24.431Z,19.76
2023-05-12T09:33:52.232Z,19.60
2023-05-12T09:36:21.199Z,19.36
2023-05-12T09:38:59.787Z,19.16
2023-05-12T09:41:26.302Z,19.09
2023-05-12T09:43:53.522Z,19.13
2023-05-12T09:46:20.263Z,19.11
2023-05-12T09:48:48.126Z,19.29
2023-05-12T09:51:21.146Z,19.36
2023-05-12T09:53:47.587Z,19.53
2023-05-12T09:56:14.422Z,19.68
2023-05-12T09:58:48.617Z,20.21
2023-05-12T10:01:23.288Z,20.71
2023-05-12T10:03:55.672Z,21.08
2023-05-12T10:06:32.212Z,21.12
2023-05-12T10:09:23.861Z,21.30
2023-05-12T10:11:53.772Z,21.22
2023-05-12T10:14:26.037Z,21.37
2023-05-12T10:16:53.447Z,21.42
2023-05-12T10:19:20.597Z,21.60
2023-05-12T10:21:47.239Z,21.69
2023-05-12T10:24:17.181Z,21.79
2023-05-12T10:26:44.687Z,21.64
2023-05-12T10:29:12.725Z,21.68
2023-05-12T10:31:39.762Z,21.79
2023-05-12T10:34:06.938Z,22.04
2023-05-12T10:36:46.135Z,22.36
2023-05-12T10:39:15.490Z,22.66
2023-05-12T10:41:45.565Z,22.94
2023-05-12T10:44:15.397Z,23.13
2023-05-12T10:46:42.222Z,23.24
2023-05-12T10:49:10.464Z,23.57
2023-05-12T10:51:43.183Z,23.57
2023-05-12T10:54:14.880Z,23.42
2023-05-12T10:56:45.130Z,23.13
2023-05-12T10:59:20.155Z,22.97
2023-05-12T11:02:13.612Z,22.74
2023-05-12T11:04:53.126Z,22.70
2023-05-12T11:07:24.206Z,22.95
2023-05-12T11:09:58.565Z,23.17
2023-05-12T11:12:32.201Z,23.62
2023-05-12T11:15:03.278Z,23.89
2023-05-12T11:17:29.983Z,23.69
2023-05-12T11:19:56.713Z,23.60
2023-05-12T11:22:23.780Z,23.44
2023-05-12T11:24:52.465Z,22.86
2023-05-12T11:27:21.144Z,22.72
2023-05-12T11:29:59.551Z,22.38
2023-05-12T11:32:26.401Z,22.17
2023-05-12T11:34:53.257Z,22.32
2023-05-12T11:37:21.127Z,22.44
2023-05-12T11:39:48.288Z,22.65
2023-05-12T11:42:16.265Z,22.84
2023-05-12T11:44:49.846Z,23.06
2023-05-12T11:47:18.937Z,23.06
2023-05-12T11:49:54.360Z,23.20
2023-05-12T11:52:22.624Z,23.57
2023-05-12T11:54:51.475Z,23.74
2023-05-12T11:57:34.400Z,23.77
2023-05-12T12:00:06.873Z,23.41
2023-05-12T12:02:33.878Z,23.39
2023-05-12T12:05:00.660Z,23.37
2023-05-12T12:07:34.174Z,23.40
2023-05-12T12:10:17.802Z,23.29
2023-05-12T12:12:45.274Z,23.03
2023-05-12T12:15:14.515Z,22.67
2023-05-12T12:17:41.162Z,22.55
2023-05-12T12:20:09.134Z,22.58
2023-05-12T12:22:35.957Z,22.89
2023-05-12T12:25:03.688Z,22.96
2023-05-12T12:27:30.657Z,22.96
2023-05-12T12:29:57.261Z,23.00
2023-05-12T12:32:23.897Z,22.93
2023-05-12T12:34:50.433Z,23.20
2023-05-12T12:37:17.213Z,23.25
2023-05-12T12:39:43.893Z,23.26
2023-05-12T12:42:10.311Z,23.09
2023-05-12T12:44:36.691Z,23.00
2023-05-12T12:47:03.624Z,22.98
2023-05-12T12:49:30.125Z,23.04
2023-05-12T12:51:56.602Z,23.15
2023-05-12T12:54:25.134Z,23.17
2023-05-12T12:56:51.598Z,23.12
2023-05-12T12:59:18.032Z,23.22
2023-05-12T13:01:44.473Z,23.17
2023-05-12T13:04:10.982Z,23.26
2023-05-12T13:06:37.833Z,23.21
2023-05-12T13:09:04.342Z,23.24
2023-05-12T13:11:30.915Z,23.18
2023-05-12T13:13:59.345Z,23.22
2023-05-12T13:16:25.880Z,23.26
2023-05-12T13:18:52.498Z,23.31
2023-05-12T13:21:19.106Z,23.24
2023-05-12T13:23:45.673Z,23.25
2023-05-12T13:26:12.521Z,23.24
2023-05-12T13:28:38.971Z,23.29
2023-05-12T13:31:06.172Z,23.08
2023-05-12T13:33:32.816Z,23.21
2023-05-12T13:36:00.359Z,23.27
2023-05-12T13:38:26.991Z,23.24
2023-05-12T13:40:53.527Z,23.34
2023-05-12T13:43:20.017Z,23.33
2023-05-12T13:45:46.760Z,23.23
2023-05-12T13:48:13.778Z,23.24
2023-05-12T13:50:40.322Z,23.35
2023-05-12T13:53:06.717Z,23.31
2023-05-12T13:55:34.364Z,23.20
2023-05-12T13:58:00.837Z,23.25
2023-05-12T14:00:29.734Z,23.48
2023-05-12T14:02:57.934Z,23.73
2023-05-12T14:05:24.943Z,23.93
2023-05-12T14:07:51.403Z,23.96
2023-05-12T14:10:18.603Z,23.91
2023-05-12T14:12:45.395Z,23.78
2023-05-12T14:17:46.293Z,23.38
2023-05-12T14:20:12.943Z,23.17
2023-05-12T14:22:39.501Z,23.00
2023-05-12T14:25:06.494Z,22.98
2023-05-12T14:27:33.014Z,22.89
2023-05-12T14:30:00.720Z,22.80
2023-05-12T14:32:27.356Z,22.90
2023-05-12T14:34:53.909Z,23.11
2023-05-12T14:37:20.353Z,23.13
2023-05-12T14:39:46.976Z,23.02
2023-05-12T14:42:14.898Z,23.16
2023-05-12T14:44:41.335Z,23.31
2023-05-12T14:47:09.053Z,23.24
2023-05-12T14:49:35.735Z,23.37
2023-05-12T14:52:02.654Z,23.53
2023-05-12T14:54:29.194Z,23.56
2023-05-12T14:56:56.437Z,23.25
2023-05-12T14:59:22.951Z,23.26
2023-05-12T15:01:49.494Z,23.36
2023-05-12T15:04:15.986Z,23.42
2023-05-12T15:06:42.668Z,23.31
2023-05-12T15:09:09.640Z,23.14
2023-05-12T15:11:36.929Z,23.00
2023-05-12T15:14:04.620Z,22.95
2023-05-12T15:16:32.782Z,23.08
2023-05-12T15:19:00.057Z,23.07
2023-05-12T15:21:26.613Z,23.16
2023-05-12T15:23:53.134Z,23.06
2023-05-12T15:28:49.110Z,22.91
2023-05-12T15:31:15.671Z,22.93
2023-05-12T15:33:42.271Z,22.96
2023-05-12T15:36:11.244Z,22.99
2023-05-12T15:38:37.848Z,22.99
2023-05-12T15:41:04.438Z,22.91
2023-05-12T15:43:30.967Z,22.84
2023-05-12T15:45:57.472Z,22.41
2023-05-12T15:48:24.011Z,21.72
2023-05-12T15:50:51.110Z,21.14
2023-05-12T15:53:17.570Z,20.12
2023-05-12T15:55:44.208Z,19.50
2023-05-12T15:58:13.164Z,19.06
2023-05-12T16:00:40.311Z,18.98
2023-05-12T16:03:06.987Z,19.15
2023-05-12T16:05:37.742Z,19.40
2023-05-12T16:08:04.244Z,19.50
2023-05-12T16:10:30.735Z,19.63
2023-05-12T16:12:57.237Z,19.71
2023-05-12T16:15:23.725Z,19.72
2023-05-12T16:17:50.315Z,19.46
2023-05-12T16:20:16.838Z,19.12
2023-05-12T16:22:43.328Z,18.99
2023-05-12T16:25:09.913Z,19.00
2023-05-12T16:27:36.768Z,19.04
2023-05-12T16:30:03.901Z,19.06
2023-05-12T16:32:30.431Z,19.10
2023-05-12T16:34:57.273Z,19.12
2023-05-12T16:37:23.871Z,19.21
2023-05-12T16:39:50.828Z,19.25
2023-05-12T16:42:17.359Z,19.33
2023-05-12T16:44:43.789Z,19.32
2023-05-12T16:47:10.339Z,19.38
2023-05-12T16:49:36.833Z,19.43
2023-05-12T16:52:03.540Z,19.36
2023-05-12T16:54:32.874Z,19.29
2023-05-12T16:57:02.047Z,19.29
2023-05-12T16:59:29.171Z,19.26
2023-05-12T17:01:55.787Z,19.30
2023-05-12T17:04:22.305Z,19.21
2023-05-12T17:06:51.109Z,19.15
2023-05-12T17:09:18.090Z,19.08
2023-05-12T17:11:45.504Z,19.04
2023-05-12T17:14:12.441Z,19.03
2023-05-12T17:16:40.039Z,18.99
2023-05-12T17:21:36.070Z,19.06
2023-05-12T17:24:02.811Z,19.04
2023-05-12T17:26:29.421Z,18.98
2023-05-12T17:28:56.025Z,18.96
2023-05-12T17:31:22.906Z,18.93
2023-05-12T17:33:49.464Z,18.94
2023-05-12T17:36:18.443Z,18.92
2023-05-12T17:38:45.282Z,18.87
2023-05-12T17:41:11.937Z,18.88
2023-05-12T17:43:39.494Z,18.88
2023-05-12T17:46:07.591Z,18.85
2023-05-12T17:48:34.118Z,18.82
2023-05-12T17:51:01.534Z,18.85
2023-05-12T17:53:28.036Z,18.91
2023-05-12T17:55:57.368Z,18.93
2023-05-12T17:58:25.433Z,18.91
2023-05-12T18:00:52.547Z,18.92
2023-05-12T18:03:23.680Z,18.95
2023-05-12T18:05:51.326Z,19.00
2023-05-12T18:08:18.111Z,19.04
2023-05-12T18:10:44.922Z,19.07
2023-05-12T18:13:11.383Z,19.11
2023-05-12T18:15:38.246Z,19.09
2023-05-12T18:18:05.139Z,19.11
2023-05-12T18:20:31.679Z,19.12
2023-05-12T18:22:58.392Z,19.08
2023-05-12T18:25:24.866Z,19.08
2023-05-12T18:27:52.084Z,19.04
2023-05-12T18:30:18.829Z,18.99
2023-05-12T18:32:45.260Z,18.91
2023-05-12T18:35:11.703Z,18.85
2023-05-12T18:37:38.561Z,18.76
2023-05-12T18:40:06.870Z,18.65
2023-05-12T18:42:34.328Z,18.64
2023-05-12T18:45:00.791Z,18.61
2023-05-12T18:47:27.313Z,18.52
2023-05-12T18:49:53.949Z,18.49
2023-05-12T18:52:21.234Z,18.41
2023-05-12T18:54:49.409Z,18.33
2023-05-12T18:57:16.428Z,18.21
2023-05-12T18:59:42.987Z,18.16
2023-05-12T19:02:09.701Z,18.08
2023-05-12T19:04:36.709Z,18.10
2023-05-12T19:07:03.787Z,18.00
2023-05-12T19:09:30.228Z,17.89
2023-05-12T19:11:56.682Z,17.85
2023-05-12T19:14:23.258Z,17.81
2023-05-12T19:16:49.740Z,17.71
2023-05-12T19:19:16.256Z,17.65
2023-05-12T19:21:42.842Z,17.57
2023-05-12T19:24:10.549Z,17.55
2023-05-12T19:26:37.414Z,17.52
2023-05-12T19:29:04.443Z,17.50
2023-05-12T19:31:31.107Z,17.48
2023-05-12T19:33:58.886Z,17.36
2023-05-12T19:36:25.450Z,17.31
2023-05-12T19:38:52.006Z,17.22
2023-05-12T19:41:18.534Z,17.17
2023-05-12T19:43:45.036Z,17.09
2023-05-12T19:46:11.574Z,17.07
2023-05-12T19:48:38.547Z,17.03
2023-05-12T19:51:04.989Z,17.03
2023-05-12T19:53:31.481Z,16.94
2023-05-12T19:55:57.950Z,16.86
2023-05-12T19:58:26.802Z,16.81
2023-05-12T20:00:54.489Z,16.72
2023-05-12T20:03:21.435Z,16.67
2023-05-12T20:05:48.656Z,16.59
2023-05-12T20:08:15.219Z,16.58
2023-05-12T20:10:41.681Z,16.60
2023-05-12T20:13:08.089Z,16.59
2023-05-12T20:15:34.735Z,16.58
2023-05-12T20:18:01.332Z,16.54
2023-05-12T20:20:27.951Z,16.52
2023-05-12T20:22:54.417Z,16.53
2023-05-12T20:25:21.156Z,16.49
2023-05-12T20:27:48.154Z,16.48
2023-05-12T20:30:14.724Z,16.45
2023-05-12T20:32:41.224Z,16.44
2023-05-12T20:35:08.207Z,16.40
2023-05-12T20:37:34.932Z,16.30
2023-05-12T20:40:55.151Z,16.26
2023-05-12T20:43:22.693Z,16.23
2023-05-12T20:45:49.257Z,16.20
2023-05-12T20:48:15.772Z,16.21
2023-05-12T20:50:43.051Z,16.18
2023-05-12T20:53:09.540Z,16.24
2023-05-12T20:55:36.031Z,16.22
2023-05-12T20:58:02.513Z,16.19
2023-05-12T21:00:29.023Z,16.16
2023-05-12T21:02:55.857Z,16.17
2023-05-12T21:05:22.661Z,16.15
2023-05-12T21:07:56.777Z,16.17
2023-05-12T21:10:23.522Z,16.07
2023-05-12T21:12:50.693Z,16.02
2023-05-12T21:15:17.103Z,16.02
2023-05-12T21:17:43.536Z,16.00
2023-05-12T21:20:11.849Z,15.99
2023-05-12T21:22:40.509Z,15.96
2023-05-12T21:25:07.397Z,15.91
2023-05-12T21:27:34.470Z,15.89
2023-05-12T21:30:00.856Z,15.85
2023-05-12T21:32:27.651Z,15.83
2023-05-12T21:34:54.271Z,15.83
2023-05-12T21:37:20.775Z,15.84
2023-05-12T21:39:47.224Z,15.79
2023-05-12T21:42:13.794Z,15.76
2023-05-12T21:44:40.304Z,15.75
2023-05-12T21:47:07.659Z,15.70
2023-05-12T21:49:35.409Z,15.70
2023-05-12T21:52:02.215Z,15.68
2023-05-12T21:54:31.946Z,15.63
2023-05-12T21:56:58.397Z,15.62
2023-05-12T21:59:25.071Z,15.58
2023-05-12T22:01:51.603Z,15.57
2023-05-12T22:04:18.129Z,15.50
2023-05-12T22:06:44.583Z,15.45
2023-05-12T22:09:13.519Z,15.45
2023-05-12T22:11:39.984Z,15.42
2023-05-12T22:14:06.392Z,15.43
2023-05-12T22:16:41.360Z,15.42
2023-05-12T22:19:08.999Z,15.37
2023-05-12T22:21:35.590Z,15.37
2023-05-12T22:24:02.121Z,15.36
2023-05-12T22:26:28.631Z,15.36
2023-05-12T22:28:55.107Z,15.39
2023-05-12T22:31:21.625Z,15.36
2023-05-12T22:33:48.212Z,15.36
2023-05-12T22:36:15.336Z,15.33
2023-05-12T22:38:41.803Z,15.34
2023-05-12T22:41:08.236Z,15.35
2023-05-12T22:43:34.654Z,15.34
2023-05-12T22:46:01.178Z,15.34
2023-05-12T22:48:27.629Z,15.30
2023-05-12T22:50:54.529Z,15.26
2023-05-12T22:53:21.075Z,15.27
2023-05-12T22:55:47.569Z,15.27
2023-05-12T22:58:14.304Z,15.25
2023-05-12T23:00:40.809Z,15.25
2023-05-12T23:03:07.407Z,15.24
2023-05-12T23:05:34.022Z,15.24
2023-05-12T23:08:02.750Z,15.21
2023-05-12T23:10:29.697Z,15.17
2023-05-12T23:12:56.279Z,15.17
2023-05-12T23:15:22.781Z,15.19
2023-05-12T23:17:49.268Z,15.18
2023-05-12T23:20:15.837Z,15.15
2023-05-12T23:22:42.308Z,15.13
2023-05-12T23:25:09.542Z,15.06
2023-05-12T23:27:36.799Z,15.04
2023-05-12T23:30:03.453Z,15.06
2023-05-12T23:32:30.076Z,15.03
2023-05-12T23:34:56.605Z,15.00
2023-05-12T23:37:24.509Z,14.96
2023-05-12T23:39:51.180Z,14.93
2023-05-12T23:42:17.756Z,14.88
2023-05-12T23:44:44.231Z,14.82
2023-05-12T23:47:10.729Z,14.78
2023-05-12T23:49:37.230Z,14.75
2023-05-12T23:52:03.966Z,14.76
2023-05-12T23:54:30.814Z,14.75
2023-05-12T23:56:57.351Z,14.75
2023-05-12T23:59:23.806Z,14.71
